Quick Links (Output Below):   Max & Min Temps   /   Climate Reports   /   Zone Forecasts
River Forecasts   /   Forestry Forecasts   /   Aviation Forecasts   /   Radars   /   Features

Terminal Aerodrome Forecast (Jonesboro)

Pick a Site:
Arkadelphia | El Dorado | Fayetteville | Fort Smith | Harrison | Highfill | Hot Springs | Jonesboro
Little Rock | Monticello | Mountain Home | Pine Bluff | Texarkana
 Forecast 

KJBR 021136Z 0212/0312 20010KT P6SM SCT015 BKN250
      TEMPO 0212/0213 BKN015
     FM021300 22010KT P6SM VCTS SCT015 BKN040CB
      TEMPO 0213/0215 VRB15G25KT 3SM TSRA BR BKN015CB
     FM021500 22010KT 6SM -SHRA SCT020 BKN040 OVC100
     FM021900 22010KT P6SM BKN040
     FM030000 VRB03KT P6SM SCT040 BKN150
     FM030600 VRB03KT 5SM BR SCT040
      TEMPO 0309/0312 2SM BR=


 Latest METARs (Observations) 
How to Decode METARs
17Z KJBR 021653Z AUTO 22006KT 10SM CLR 27/21 A3000 RMK AO2 SLP154
         P0063 T02670206
         
16Z KJBR 021553Z AUTO 19005KT 10SM FEW120 26/21 A3001 RMK AO2 SLP159
         T02560211
         
15Z KJBR 021453Z AUTO 15003KT 10SM FEW036 BKN100 BKN120 23/21 A3002
         RMK AO2 RAE45 SLP164 P0000 6//// T02330206 50008
         
14Z KJBR 021353Z AUTO 00000KT 10SM -RA FEW043 SCT070 BKN090 22/19
         A3004 RMK AO2 TSE18RAB10 SLP169 P0000 T02220194
         
13Z KJBR 021253Z AUTO 23008KT 10SM VCTS FEW009 SCT040 BKN075 24/23
         A3001 RMK AO2 LTG DSNT N AND W TSB48 SLP157 T02440228
         
12Z KJBR 021153Z AUTO 22009KT 10SM FEW085 BKN110 24/23 A3000 RMK AO2
         SLP155 6//// 7//// T02440228 10267 20239 53009 PNO $
         
11Z KJBR 021053Z AUTO 20011KT 10SM CLR 24/22 A2998 RMK AO2 SLP147
         T02440222 PNO $
         
10Z KJBR 020953Z AUTO 20003KT 10SM CLR 24/22 A2998 RMK AO2 SLP147
         T02390222 PNO $
         
09Z KJBR 020853Z AUTO 21010KT 10SM CLR 25/22 A2997 RMK AO2 SLP145
         6//// T02500222 53001 PNO $
         
08Z KJBR 020753Z AUTO 23006KT 10SM CLR 25/22 A2996 RMK AO2 SLP142
         T02500222 PNO $
         
***** Today's Observations (Above) *****


Back to Main Page
http://www.srh.noaa.gov/lzk/qfcst.php

USA.gov is the U.S. government's official web portal to all federal, state and local government web resources and services.